sensor_id;sensor_type;location;lat;lon;timestamp;pressure;altitude;pressure_sealevel;temperature;humidity
70458;BME280;57919;56.194;95.716;2023-05-23T00:07:25;98913.72;;;16.62;52.15
70458;BME280;57919;56.194;95.716;2023-05-23T00:17:27;98919.31;;;17.66;49.08
70458;BME280;57919;56.194;95.716;2023-05-23T00:27:29;98924.50;;;18.92;46.24
70458;BME280;57919;56.194;95.716;2023-05-23T00:37:30;98926.72;;;19.53;42.77
70458;BME280;57919;56.194;95.716;2023-05-23T00:47:32;98923.13;;;20.21;40.94
70458;BME280;57919;56.194;95.716;2023-05-23T00:57:35;98935.94;;;21.23;38.54
70458;BME280;57919;56.194;95.716;2023-05-23T01:07:44;98933.59;;;21.73;35.83
70458;BME280;57919;56.194;95.716;2023-05-23T01:28:04;98942.72;;;22.51;32.04
70458;BME280;57919;56.194;95.716;2023-05-23T01:38:06;98958.25;;;22.90;30.33
70458;BME280;57919;56.194;95.716;2023-05-23T01:48:08;98950.63;;;22.41;28.90
70458;BME280;57919;56.194;95.716;2023-05-23T01:58:13;98962.22;;;23.32;27.17
70458;BME280;57919;56.194;95.716;2023-05-23T02:08:15;98962.66;;;23.61;26.19
70458;BME280;57919;56.194;95.716;2023-05-23T02:18:17;98965.44;;;22.98;25.84
70458;BME280;57919;56.194;95.716;2023-05-23T02:28:38;98960.97;;;23.28;25.93
70458;BME280;57919;56.194;95.716;2023-05-23T02:38:42;98962.09;;;24.20;23.95
70458;BME280;57919;56.194;95.716;2023-05-23T02:48:43;98948.91;;;23.79;22.11
70458;BME280;57919;56.194;95.716;2023-05-23T02:58:47;98955.06;;;23.56;22.05
70458;BME280;57919;56.194;95.716;2023-05-23T03:08:48;98968.38;;;23.34;22.43
70458;BME280;57919;56.194;95.716;2023-05-23T03:18:51;98959.25;;;23.02;21.91
70458;BME280;57919;56.194;95.716;2023-05-23T03:28:52;98956.97;;;22.93;20.47
70458;BME280;57919;56.194;95.716;2023-05-23T03:38:54;98962.06;;;22.38;20.06
70458;BME280;57919;56.194;95.716;2023-05-23T03:48:56;98974.47;;;22.02;20.42
70458;BME280;57919;56.194;95.716;2023-05-23T03:58:58;98968.09;;;21.82;20.09
70458;BME280;57919;56.194;95.716;2023-05-23T04:09:02;98972.47;;;22.36;19.94
70458;BME280;57919;56.194;95.716;2023-05-23T04:19:08;98961.59;;;22.54;19.37
70458;BME280;57919;56.194;95.716;2023-05-23T04:29:11;98954.22;;;22.93;19.48
70458;BME280;57919;56.194;95.716;2023-05-23T04:39:13;98950.44;;;23.75;19.57
70458;BME280;57919;56.194;95.716;2023-05-23T04:49:28;98932.66;;;23.89;18.90
70458;BME280;57919;56.194;95.716;2023-05-23T04:59:31;98916.28;;;23.69;19.15
70458;BME280;57919;56.194;95.716;2023-05-23T05:09:33;98906.09;;;24.25;18.49
70458;BME280;57919;56.194;95.716;2023-05-23T05:19:35;98877.25;;;24.02;18.82
70458;BME280;57919;56.194;95.716;2023-05-23T05:29:37;98860.50;;;24.34;19.09
70458;BME280;57919;56.194;95.716;2023-05-23T05:39:39;98843.38;;;24.43;18.36
70458;BME280;57919;56.194;95.716;2023-05-23T05:49:41;98849.16;;;22.94;18.88
70458;BME280;57919;56.194;95.716;2023-05-23T05:59:44;98841.91;;;22.30;19.20
70458;BME280;57919;56.194;95.716;2023-05-23T06:09:47;98821.88;;;23.29;19.59
70458;BME280;57919;56.194;95.716;2023-05-23T06:19:49;98824.81;;;22.84;19.95
70458;BME280;57919;56.194;95.716;2023-05-23T06:29:51;98803.94;;;22.95;19.78
70458;BME280;57919;56.194;95.716;2023-05-23T06:39:53;98796.91;;;22.68;20.22
70458;BME280;57919;56.194;95.716;2023-05-23T06:49:55;98782.97;;;23.12;19.68
70458;BME280;57919;56.194;95.716;2023-05-23T06:59:57;98772.63;;;22.83;19.52
70458;BME280;57919;56.194;95.716;2023-05-23T07:09:59;98774.78;;;22.74;20.03
70458;BME280;57919;56.194;95.716;2023-05-23T07:20:02;98756.97;;;22.77;20.27
70458;BME280;57919;56.194;95.716;2023-05-23T07:30:07;98753.84;;;22.42;19.86
70458;BME280;57919;56.194;95.716;2023-05-23T07:40:13;98749.13;;;22.17;20.02
70458;BME280;57919;56.194;95.716;2023-05-23T07:50:15;98748.88;;;22.82;19.74
70458;BME280;57919;56.194;95.716;2023-05-23T08:00:17;98744.91;;;22.71;19.37
70458;BME280;57919;56.194;95.716;2023-05-23T08:10:27;98733.66;;;22.73;19.66
70458;BME280;57919;56.194;95.716;2023-05-23T08:20:37;98718.78;;;22.80;19.61
70458;BME280;57919;56.194;95.716;2023-05-23T08:30:39;98719.28;;;22.39;20.41
70458;BME280;57919;56.194;95.716;2023-05-23T08:40:49;98689.97;;;22.45;21.26
70458;BME280;57919;56.194;95.716;2023-05-23T08:50:57;98692.94;;;22.18;20.21
70458;BME280;57919;56.194;95.716;2023-05-23T09:01:00;98675.75;;;21.85;20.86
70458;BME280;57919;56.194;95.716;2023-05-23T09:11:04;98665.22;;;21.75;21.55
70458;BME280;57919;56.194;95.716;2023-05-23T09:21:12;98658.44;;;21.78;21.42
70458;BME280;57919;56.194;95.716;2023-05-23T09:31:25;98662.53;;;21.62;21.75
70458;BME280;57919;56.194;95.716;2023-05-23T09:41:34;98653.22;;;21.63;21.83
70458;BME280;57919;56.194;95.716;2023-05-23T09:51:37;98658.63;;;21.38;22.37
70458;BME280;57919;56.194;95.716;2023-05-23T10:01:41;98657.97;;;21.43;22.30
70458;BME280;57919;56.194;95.716;2023-05-23T10:22:05;98631.91;;;20.81;22.97
70458;BME280;57919;56.194;95.716;2023-05-23T10:32:08;98631.78;;;20.49;23.39
70458;BME280;57919;56.194;95.716;2023-05-23T10:42:16;98628.34;;;20.67;23.14
70458;BME280;57919;56.194;95.716;2023-05-23T10:52:23;98622.03;;;20.33;23.66
70458;BME280;57919;56.194;95.716;2023-05-23T11:02:28;98601.97;;;20.00;24.04
70458;BME280;57919;56.194;95.716;2023-05-23T11:12:48;98610.41;;;19.85;24.57
70458;BME280;57919;56.194;95.716;2023-05-23T11:23:00;98608.81;;;19.43;25.55
70458;BME280;57919;56.194;95.716;2023-05-23T11:33:11;98602.50;;;19.49;25.31
70458;BME280;57919;56.194;95.716;2023-05-23T11:43:16;98598.25;;;19.40;25.69
70458;BME280;57919;56.194;95.716;2023-05-23T11:53:21;98606.34;;;19.00;26.31
70458;BME280;57919;56.194;95.716;2023-05-23T12:03:25;98594.69;;;18.92;26.84
70458;BME280;57919;56.194;95.716;2023-05-23T12:13:28;98588.28;;;18.71;27.17
70458;BME280;57919;56.194;95.716;2023-05-23T12:23:31;98584.44;;;18.66;27.43
70458;BME280;57919;56.194;95.716;2023-05-23T12:33:37;98573.72;;;18.36;27.72
70458;BME280;57919;56.194;95.716;2023-05-23T12:43:39;98575.56;;;18.01;28.14
70458;BME280;57919;56.194;95.716;2023-05-23T12:53:42;98575.41;;;17.82;28.61
70458;BME280;57919;56.194;95.716;2023-05-23T13:03:44;98578.78;;;17.62;29.25
70458;BME280;57919;56.194;95.716;2023-05-23T13:13:47;98583.38;;;17.40;29.94
70458;BME280;57919;56.194;95.716;2023-05-23T13:23:49;98583.38;;;17.19;30.62
70458;BME280;57919;56.194;95.716;2023-05-23T13:33:51;98571.06;;;17.08;30.86
70458;BME280;57919;56.194;95.716;2023-05-23T13:43:53;98581.34;;;16.92;31.46
70458;BME280;57919;56.194;95.716;2023-05-23T13:53:55;98573.56;;;16.74;32.11
70458;BME280;57919;56.194;95.716;2023-05-23T14:03:57;98577.69;;;16.55;32.10
70458;BME280;57919;56.194;95.716;2023-05-23T14:13:59;98579.09;;;16.36;32.22
70458;BME280;57919;56.194;95.716;2023-05-23T14:24:01;98575.91;;;16.18;32.32
70458;BME280;57919;56.194;95.716;2023-05-23T14:34:03;98569.56;;;16.03;32.99
70458;BME280;57919;56.194;95.716;2023-05-23T14:44:05;98574.63;;;15.91;33.44
70458;BME280;57919;56.194;95.716;2023-05-23T14:54:08;98566.41;;;15.76;33.72
70458;BME280;57919;56.194;95.716;2023-05-23T15:04:10;98551.06;;;15.61;34.25
70458;BME280;57919;56.194;95.716;2023-05-23T15:14:12;98542.22;;;15.59;34.14
70458;BME280;57919;56.194;95.716;2023-05-23T15:24:14;98542.25;;;15.50;34.52
70458;BME280;57919;56.194;95.716;2023-05-23T15:34:18;98546.97;;;15.34;35.38
70458;BME280;57919;56.194;95.716;2023-05-23T15:44:20;98539.94;;;15.16;35.52
70458;BME280;57919;56.194;95.716;2023-05-23T15:54:22;98536.25;;;15.09;35.74
70458;BME280;57919;56.194;95.716;2023-05-23T16:04:24;98542.91;;;15.07;36.02
70458;BME280;57919;56.194;95.716;2023-05-23T16:14:26;98530.56;;;14.96;36.62
70458;BME280;57919;56.194;95.716;2023-05-23T16:24:27;98515.28;;;14.87;37.19
70458;BME280;57919;56.194;95.716;2023-05-23T16:34:29;98497.00;;;14.73;37.62
70458;BME280;57919;56.194;95.716;2023-05-23T16:44:31;98489.63;;;14.50;38.64
70458;BME280;57919;56.194;95.716;2023-05-23T16:54:33;98475.84;;;14.13;40.54
70458;BME280;57919;56.194;95.716;2023-05-23T17:04:35;98465.53;;;14.00;40.52
70458;BME280;57919;56.194;95.716;2023-05-23T17:14:37;98432.59;;;13.87;41.30
70458;BME280;57919;56.194;95.716;2023-05-23T17:24:39;98431.75;;;13.86;41.33
70458;BME280;57919;56.194;95.716;2023-05-23T17:34:41;98421.91;;;13.85;41.84
70458;BME280;57919;56.194;95.716;2023-05-23T17:44:43;98404.94;;;13.75;42.13
70458;BME280;57919;56.194;95.716;2023-05-23T17:54:45;98391.75;;;13.56;43.03
70458;BME280;57919;56.194;95.716;2023-05-23T18:04:46;98406.06;;;13.34;44.70
70458;BME280;57919;56.194;95.716;2023-05-23T18:14:48;98411.50;;;13.09;45.86
70458;BME280;57919;56.194;95.716;2023-05-23T18:24:52;98408.91;;;12.26;52.72
70458;BME280;57919;56.194;95.716;2023-05-23T18:34:54;98352.13;;;11.75;55.36
70458;BME280;57919;56.194;95.716;2023-05-23T18:44:56;98349.13;;;11.78;54.25
70458;BME280;57919;56.194;95.716;2023-05-23T18:54:58;98326.28;;;11.80;54.74
70458;BME280;57919;56.194;95.716;2023-05-23T19:05:00;98306.38;;;11.63;55.90
70458;BME280;57919;56.194;95.716;2023-05-23T19:15:06;98278.03;;;11.42;56.95
70458;BME280;57919;56.194;95.716;2023-05-23T19:25:10;98255.00;;;11.38;58.30
70458;BME280;57919;56.194;95.716;2023-05-23T19:35:12;98238.34;;;11.16;59.23
70458;BME280;57919;56.194;95.716;2023-05-23T19:45:16;98448.97;;;9.13;64.36
70458;BME280;57919;56.194;95.716;2023-05-23T19:55:18;98472.53;;;7.23;70.65
70458;BME280;57919;56.194;95.716;2023-05-23T20:05:22;98446.91;;;6.56;73.41
70458;BME280;57919;56.194;95.716;2023-05-23T20:15:23;98436.78;;;6.48;72.74
70458;BME280;57919;56.194;95.716;2023-05-23T20:25:26;98445.06;;;6.77;70.88
70458;BME280;57919;56.194;95.716;2023-05-23T20:35:28;98444.28;;;7.07;70.22
70458;BME280;57919;56.194;95.716;2023-05-23T20:45:32;98461.59;;;7.15;69.46
70458;BME280;57919;56.194;95.716;2023-05-23T20:55:34;98471.75;;;7.11;70.16
70458;BME280;57919;56.194;95.716;2023-05-23T21:05:36;98462.97;;;7.09;71.11
70458;BME280;57919;56.194;95.716;2023-05-23T21:15:38;98466.19;;;7.03;74.00
70458;BME280;57919;56.194;95.716;2023-05-23T21:25:39;98411.44;;;7.04;74.59
70458;BME280;57919;56.194;95.716;2023-05-23T21:35:42;98448.63;;;6.99;75.67
70458;BME280;57919;56.194;95.716;2023-05-23T21:45:45;98407.31;;;7.00;74.46
70458;BME280;57919;56.194;95.716;2023-05-23T21:55:47;98453.66;;;6.92;74.80
70458;BME280;57919;56.194;95.716;2023-05-23T22:05:49;98443.44;;;6.86;74.81
70458;BME280;57919;56.194;95.716;2023-05-23T22:15:51;98453.00;;;7.00;74.79
70458;BME280;57919;56.194;95.716;2023-05-23T22:25:53;98457.47;;;7.10;75.36
70458;BME280;57919;56.194;95.716;2023-05-23T22:35:55;98472.63;;;7.11;75.38
70458;BME280;57919;56.194;95.716;2023-05-23T22:45:57;98491.44;;;7.11;75.24
70458;BME280;57919;56.194;95.716;2023-05-23T22:55:59;98492.53;;;7.30;74.55
70458;BME280;57919;56.194;95.716;2023-05-23T23:06:01;98500.88;;;7.78;74.24
70458;BME280;57919;56.194;95.716;2023-05-23T23:16:06;98499.81;;;8.59;72.55
70458;BME280;57919;56.194;95.716;2023-05-23T23:26:09;98487.16;;;9.74;68.21
70458;BME280;57919;56.194;95.716;2023-05-23T23:36:11;98485.78;;;10.70;65.09
70458;BME280;57919;56.194;95.716;2023-05-23T23:46:12;98493.03;;;11.75;61.94
70458;BME280;57919;56.194;95.716;2023-05-23T23:56:15;98492.06;;;12.68;58.75
